Аэропорт: Запорожье. Запорожье

ICAO: UKDE

METAR:
2019/03/24 18:00
UKDE 241800Z 25001MPS CAVOK 06/M02 Q1015 R02R/090070 NOSIG
METAR:
2019/03/22 16:42
TAF 
      AMD TAF 
      AMD UKDE 221637Z 2216/2324 26009MPS 9999 BKN030CB TX10/2216Z TN03/2224Z 
      TEMPO 2216/2219 26011G16MPS 2100 -TSRA BKN010 BKN015CB 
      BECMG 2219/2221 29006MPS